Time;durP1;ratioP1;P1;durP2;ratioP2;P2;SDS_P1;SDS_P2;PMS_P1;PMS_P2;Temp;Humidity;BMP_temperature;BMP_pressure;BME280_temperature;BME280_humidity;BME280_pressure;Samples;Min_cycle;Max_cycle;Signal;HPM_P1;HPM_P2
2022/11/03 00:01:02;;;;;;;10.55;4.97;;;;;;;9.75;100.00;99469.84;4352733;32;20032;-75
2022/11/03 00:03:30;;;;;;;14.27;4.72;;;;;;;10.01;100.00;99518.84;4355208;32;20074;-75
2022/11/03 00:06:05;;;;;;;13.90;5.30;;;;;;;9.79;100.00;99483.63;4331255;33;20107;-75
2022/11/03 00:08:40;;;;;;;14.75;5.10;;;;;;;9.91;100.00;99513.25;4325789;33;20057;-75
2022/11/03 00:11:09;;;;;;;14.95;5.78;;;;;;;10.01;100.00;99524.22;4325234;33;20074;-75
2022/11/03 00:13:38;;;;;;;16.92;6.07;;;;;;;10.07;100.00;99525.97;4325482;33;20029;-75
2022/11/03 00:16:05;;;;;;;12.63;4.47;;;;;;;10.18;100.00;99535.13;4315474;33;20037;-74
2022/11/03 00:18:32;;;;;;;14.27;5.80;;;;;;;9.55;100.00;99488.19;4308216;33;20061;-75
2022/11/03 00:21:01;;;;;;;13.20;4.87;;;;;;;9.86;100.00;99521.16;4308479;33;20066;-75
2022/11/03 00:23:31;;;;;;;11.77;5.43;;;;;;;10.00;100.00;99518.03;4310459;33;20057;-76
2022/11/03 00:26:15;;;;;;;14.57;5.65;;;;;;;9.90;100.00;99482.00;4310541;33;20403;-76
2022/11/03 00:28:44;;;;;;;13.95;5.75;;;;;;;9.82;100.00;99489.34;4308382;33;20045;-75
2022/11/03 00:31:11;;;;;;;13.32;5.85;;;;;;;10.17;100.00;99507.38;4310369;33;20463;-75
2022/11/03 00:33:39;;;;;;;14.87;6.95;;;;;;;10.08;100.00;99530.28;4310630;33;20086;-75
2022/11/03 00:36:07;;;;;;;17.75;6.68;;;;;;;9.69;100.00;99473.47;4310153;33;20051;-74
2022/11/03 00:38:34;;;;;;;17.17;6.32;;;;;;;9.67;100.00;99510.53;4337689;33;20068;-75
2022/11/03 00:41:02;;;;;;;11.25;5.87;;;;;;;9.89;100.00;99520.69;4321405;33;20032;-75
2022/11/03 00:43:30;;;;;;;20.10;6.85;;;;;;;9.64;100.00;99524.44;4315201;33;20067;-74
2022/11/03 00:45:57;;;;;;;24.70;6.85;;;;;;;9.36;100.00;99469.44;4322004;33;20058;-75
2022/11/03 00:48:30;;;;;;;19.20;6.90;;;;;;;9.45;100.00;99502.19;4323682;33;20040;-75
2022/11/03 00:51:23;;;;;;;14.98;7.20;;;;;;;9.59;100.00;99510.88;4323485;33;20048;-75
2022/11/03 00:53:51;;;;;;;15.50;6.80;;;;;;;9.44;100.00;99482.56;4322695;33;20367;-75
2022/11/03 00:56:23;;;;;;;18.62;6.80;;;;;;;9.46;100.00;99485.00;4324817;33;20080;-75
2022/11/03 00:58:51;;;;;;;17.58;6.78;;;;;;;9.65;100.00;99526.06;4323651;33;20486;-75
2022/11/03 01:01:20;;;;;;;16.75;7.00;;;;;;;9.71;100.00;99511.69;4324487;33;20052;-74
2022/11/03 01:06:51;;;;;;;21.67;9.23;;;;;;;9.46;100.00;99519.94;4324208;33;20061;-75
2022/11/03 01:09:23;;;;;;;15.75;6.87;;;;;;;9.67;100.00;99528.50;4322890;33;20032;-75
2022/11/03 01:12:16;;;;;;;10.63;6.78;;;;;;;9.32;100.00;99488.94;4329678;33;20109;-75
2022/11/03 01:14:48;;;;;;;21.35;7.47;;;;;;;9.38;100.00;99520.28;4338495;33;20032;-75
2022/11/03 01:17:17;;;;;;;17.70;7.65;;;;;;;9.45;100.00;99524.50;4339071;33;20032;-75
2022/11/03 01:19:43;;;;;;;20.80;7.80;;;;;;;9.09;100.00;99480.59;4341193;33;20043;-75
2022/11/03 01:22:11;;;;;;;21.73;7.93;;;;;;;9.35;100.00;99505.44;4341284;33;20241;-75
2022/11/03 01:24:40;;;;;;;20.73;6.90;;;;;;;9.44;100.00;99514.81;4341292;33;20070;-75
2022/11/03 01:27:13;;;;;;;13.00;7.05;;;;;;;9.39;100.00;99519.22;4340188;33;20402;-75
2022/11/03 01:29:40;;;;;;;12.40;6.25;;;;;;;9.02;100.00;99474.50;4340398;33;20394;-75
2022/11/03 01:32:07;;;;;;;14.35;7.07;;;;;;;8.76;100.00;99480.22;4335827;33;20409;-75
2022/11/03 01:34:34;;;;;;;12.27;7.53;;;;;;;9.12;100.00;99513.41;4326458;33;20352;-75
2022/11/03 01:37:01;;;;;;;18.83;8.50;;;;;;;9.03;100.00;99468.09;4324906;33;20062;-75
2022/11/03 01:39:27;;;;;;;17.30;7.80;;;;;;;9.16;100.00;99511.91;4326207;33;20070;-75
2022/11/03 01:41:54;;;;;;;16.00;6.82;;;;;;;9.25;100.00;99516.75;4325495;33;20048;-74
2022/11/03 01:44:34;;;;;;;17.33;7.87;;;;;;;9.00;100.00;99476.59;4325702;33;20183;-75
2022/11/03 01:47:04;;;;;;;21.48;6.78;;;;;;;9.37;100.00;99508.72;4327288;33;20111;-74
2022/11/03 01:49:33;;;;;;;21.55;7.72;;;;;;;8.97;100.00;99471.69;4340801;33;20824;-75
2022/11/03 01:52:06;;;;;;;23.65;8.05;;;;;;;8.97;100.00;99482.41;4340235;33;20097;-75
2022/11/03 01:54:35;;;;;;;19.95;7.25;;;;;;;8.91;100.00;99477.97;4339340;33;20058;-76
2022/11/03 01:57:06;;;;;;;18.08;7.90;;;;;;;9.15;100.00;99510.28;4331927;33;20051;-75
2022/11/03 01:59:32;;;;;;;21.20;7.20;;;;;;;8.96;100.00;99480.78;4337405;33;20068;-76
2022/11/03 02:01:59;;;;;;;17.20;7.32;;;;;;;9.01;100.00;99466.66;4345213;32;20319;-75
2022/11/03 02:04:29;;;;;;;19.45;7.37;;;;;;;9.31;100.00;99515.00;4355519;32;20340;-76
2022/11/03 02:07:14;;;;;;;14.43;7.70;;;;;;;8.93;100.00;99465.13;4352558;32;20069;-75
2022/11/03 02:09:40;;;;;;;29.63;7.75;;;;;;;9.07;100.00;99514.91;4344749;32;20105;-75
2022/11/03 02:12:07;;;;;;;20.65;8.50;;;;;;;8.65;100.00;99482.63;4340866;33;20048;-75
2022/11/03 02:14:57;;;;;;;21.95;9.20;;;;;;;8.77;100.00;99479.19;4339840;33;20044;-75
2022/11/03 02:17:28;;;;;;;22.17;8.93;;;;;;;8.97;100.00;99492.34;4340549;33;20054;-75
2022/11/03 02:20:00;;;;;;;23.80;8.75;;;;;;;8.93;100.00;99510.78;4343759;32;20055;-75
2022/11/03 02:22:39;;;;;;;33.08;10.18;;;;;;;9.05;100.00;99510.84;4344896;32;20070;-74
2022/11/03 02:25:41;;;;;;;20.05;8.30;;;;;;;8.84;100.00;99471.84;4340623;33;20099;-75
2022/11/03 02:28:10;;;;;;;20.50;7.82;;;;;;;9.11;100.00;99499.19;4340740;33;20523;-75
2022/11/03 02:30:48;;;;;;;18.25;8.13;;;;;;;8.86;100.00;99502.81;4343259;32;20040;-75
2022/11/03 02:33:21;;;;;;;21.25;7.72;;;;;;;9.02;100.00;99506.72;4340669;33;20063;-75
2022/11/03 02:35:55;;;;;;;21.23;8.45;;;;;;;8.91;100.00;99505.63;4341478;33;20069;-75
2022/11/03 02:38:25;;;;;;;18.60;7.35;;;;;;;8.72;100.00;99456.50;4335123;33;20058;-74
2022/11/03 02:40:57;;;;;;;20.45;7.55;;;;;;;8.94;100.00;99501.69;4323131;33;20051;-75
2022/11/03 02:43:25;;;;;;;21.45;8.05;;;;;;;8.91;100.00;99507.50;4325841;33;20047;-75
2022/11/03 02:45:53;;;;;;;20.02;7.65;;;;;;;8.82;100.00;99503.47;4325017;33;20040;-74
2022/11/03 02:48:19;;;;;;;17.23;7.28;;;;;;;8.69;100.00;99461.53;4326189;33;20080;-75
2022/11/03 02:50:47;;;;;;;25.00;8.40;;;;;;;8.73;100.00;99460.84;4323976;33;20045;-74
2022/11/03 02:53:15;;;;;;;17.70;7.97;;;;;;;8.67;100.00;99503.88;4326595;33;20066;-74
2022/11/03 02:56:02;;;;;;;20.05;8.30;;;;;;;8.66;100.00;99503.06;4326322;33;20036;-74
2022/11/03 02:58:32;;;;;;;15.85;8.38;;;;;;;8.54;100.00;99510.25;4323437;33;20406;-74
2022/11/03 03:01:16;;;;;;;15.73;8.25;;;;;;;8.13;100.00;99492.91;4325659;33;20066;-74
2022/11/03 03:04:05;;;;;;;17.48;8.18;;;;;;;8.27;100.00;99509.69;4329769;33;20055;-74
2022/11/03 03:06:52;;;;;;;19.37;8.93;;;;;;;8.25;100.00;99511.75;4343475;33;20041;-74
2022/11/03 03:09:28;;;;;;;20.60;8.60;;;;;;;8.45;100.00;99512.38;4356641;32;20056;-74
2022/11/03 03:11:57;;;;;;;26.17;9.40;;;;;;;8.29;100.00;99511.09;4347898;32;20060;-74
2022/11/03 03:14:30;;;;;;;16.42;8.13;;;;;;;8.10;100.00;99466.53;4351563;32;20140;-73
2022/11/03 03:17:00;;;;;;;18.87;8.45;;;;;;;8.20;100.00;99504.41;4349590;32;20189;-73
2022/11/03 03:19:34;;;;;;;21.37;8.63;;;;;;;8.00;100.00;99478.56;4341356;33;20053;-73
2022/11/03 03:22:10;;;;;;;25.00;9.57;;;;;;;8.20;100.00;99525.84;4342970;32;20132;-74
2022/11/03 03:24:45;;;;;;;25.12;8.70;;;;;;;7.86;100.00;99485.09;4342805;33;20207;-75
2022/11/03 03:27:16;;;;;;;32.45;15.05;;;;;;;8.05;100.00;99517.31;4353591;32;20069;-75
2022/11/03 03:29:49;;;;;;;21.52;8.75;;;;;;;7.88;100.00;99483.03;4324529;33;20636;-75
2022/11/03 03:32:20;;;;;;;20.77;9.07;;;;;;;7.94;100.00;99516.19;4326234;33;20380;-75
2022/11/03 03:34:50;;;;;;;23.12;10.10;;;;;;;8.00;100.00;99521.47;4326338;33;20160;-74
2022/11/03 03:37:18;;;;;;;27.87;10.95;;;;;;;7.89;100.00;99522.19;4329244;33;20028;-74
2022/11/03 03:39:50;;;;;;;25.65;9.35;;;;;;;7.85;100.00;99518.34;4336061;33;20056;-75
2022/11/03 03:42:20;;;;;;;22.17;9.35;;;;;;;7.55;100.00;99475.31;4340636;33;20385;-75
2022/11/03 03:44:47;;;;;;;22.95;8.88;;;;;;;7.79;100.00;99520.03;4339787;33;20101;-75
2022/11/03 03:47:26;;;;;;;27.70;9.68;;;;;;;7.10;100.00;99473.56;4336433;33;20036;-74
2022/11/03 03:49:54;;;;;;;24.08;9.65;;;;;;;7.82;100.00;99518.78;4339334;33;20032;-75
2022/11/03 03:52:20;;;;;;;21.75;9.43;;;;;;;7.89;100.00;99524.88;4340430;33;20217;-75
2022/11/03 03:54:47;;;;;;;22.20;10.70;;;;;;;7.95;100.00;99505.25;4340405;33;20062;-75
2022/11/03 03:57:16;;;;;;;21.50;9.13;;;;;;;8.03;100.00;99514.06;4307339;33;20048;-73
2022/11/03 03:59:43;;;;;;;20.23;10.57;;;;;;;7.89;100.00;99495.41;4296762;33;20089;-74
2022/11/03 04:02:11;;;;;;;22.60;9.48;;;;;;;8.00;100.00;99526.84;4325244;33;20084;-74
2022/11/03 04:04:37;;;;;;;22.17;9.75;;;;;;;8.07;100.00;99516.03;4325249;33;20029;-74
2022/11/03 04:09:50;;;;;;;22.00;9.98;;;;;;;7.89;100.00;99508.78;4325333;33;20071;-74
2022/11/03 04:23:19;;;;;;;33.63;10.32;;;;;;;7.58;100.00;99485.59;4325642;33;20048;-74
2022/11/03 04:25:51;;;;;;;27.90;9.30;;;;;;;7.61;100.00;99480.59;4324100;33;20028;-74
2022/11/03 04:28:18;;;;;;;17.10;9.45;;;;;;;7.75;100.00;99508.09;4340833;32;20804;-74
2022/11/03 04:30:44;;;;;;;18.27;10.18;;;;;;;7.90;100.00;99515.81;4341613;32;20074;-75
2022/11/03 04:33:15;;;;;;;19.10;9.57;;;;;;;7.36;100.00;99439.59;4366264;32;20032;-76
2022/11/03 04:35:45;;;;;;;33.03;10.00;;;;;;;7.60;100.00;99489.66;4367918;32;20015;-74
2022/11/03 04:38:14;;;;;;;19.10;9.10;;;;;;;7.67;100.00;99512.91;4369610;32;20077;-76
2022/11/03 04:40:46;;;;;;;18.60;9.45;;;;;;;7.73;100.00;99512.84;4355383;32;20154;-74
2022/11/03 04:43:21;;;;;;;24.65;10.48;;;;;;;7.68;100.00;99518.06;4354570;32;20087;-75
2022/11/03 04:45:49;;;;;;;27.90;10.82;;;;;;;7.63;100.00;99509.84;4351740;32;20065;-74
2022/11/03 04:48:21;;;;;;;20.58;8.63;;;;;;;7.36;100.00;99520.78;4364165;32;20056;-75
2022/11/03 04:50:50;;;;;;;27.52;10.40;;;;;;;7.31;100.00;99468.88;4366203;32;20061;-75
2022/11/03 04:53:19;;;;;;;22.13;8.70;;;;;;;7.18;100.00;99475.97;4329809;33;20468;-75
2022/11/03 04:55:48;;;;;;;17.58;9.27;;;;;;;7.68;100.00;99518.06;4334453;33;20033;-75
2022/11/03 04:58:25;;;;;;;23.30;12.00;;;;;;;7.73;100.00;99514.72;4323641;33;20060;-75
2022/11/03 05:00:55;;;;;;;15.88;9.23;;;;;;;7.80;100.00;99516.31;4323873;33;20067;-75
2022/11/03 05:03:28;;;;;;;24.92;9.90;;;;;;;7.53;100.00;99515.72;4332383;33;20336;-74
2022/11/03 05:05:55;;;;;;;26.23;8.77;;;;;;;7.82;100.00;99518.78;4339290;33;20040;-74
2022/11/03 05:08:23;;;;;;;21.85;9.13;;;;;;;7.81;100.00;99514.44;4339730;33;20052;-75
2022/11/03 05:10:49;;;;;;;20.73;9.95;;;;;;;7.36;100.00;99514.59;4331229;33;20071;-75
2022/11/03 05:13:27;;;;;;;26.10;8.05;;;;;;;7.32;100.00;99459.81;4323384;33;20074;-75
2022/11/03 05:16:01;;;;;;;13.00;8.10;;;;;;;7.14;100.00;99506.88;4318774;33;20068;-74
2022/11/03 05:18:35;;;;;;;16.48;8.43;;;;;;;7.53;100.00;99510.34;4311013;33;20062;-75
2022/11/03 05:21:05;;;;;;;21.55;8.63;;;;;;;7.10;100.00;99500.34;4320930;33;20059;-75
2022/11/03 05:23:39;;;;;;;18.12;7.93;;;;;;;7.48;100.00;99507.47;4328703;32;20333;-75
2022/11/03 05:26:13;;;;;;;21.15;8.13;;;;;;;7.37;100.00;99508.19;4353974;32;20058;-75
2022/11/03 05:28:43;;;;;;;17.25;8.07;;;;;;;7.33;100.00;99485.56;4352168;32;20083;-75
2022/11/03 05:31:31;;;;;;;16.70;8.05;;;;;;;7.50;100.00;99502.75;4353050;32;20079;-75
2022/11/03 05:34:00;;;;;;;21.37;8.85;;;;;;;7.67;100.00;99507.56;4353576;32;20055;-75
2022/11/03 05:36:31;;;;;;;20.80;8.43;;;;;;;7.68;100.00;99510.03;4353724;32;20040;-75
2022/11/03 05:39:00;;;;;;;;;;;;;;;7.64;100.00;99503.44;4353000;32;20081;-75
2022/11/03 05:41:29;;;;;;;18.15;7.55;;;;;;;7.54;100.00;99506.63;4348783;32;19939;-75
2022/11/03 05:44:16;;;;;;;23.10;9.02;;;;;;;7.33;100.00;99472.16;4310838;33;20058;-75
2022/11/03 05:46:42;;;;;;;24.37;8.90;;;;;;;7.60;100.00;99524.50;4309885;33;20336;-75
2022/11/03 05:49:09;;;;;;;24.27;9.88;;;;;;;7.34;100.00;99481.81;4310246;33;20103;-75
2022/11/03 05:51:40;;;;;;;19.17;9.25;;;;;;;7.35;100.00;99475.44;4308596;33;20025;-75
2022/11/03 05:54:18;;;;;;;23.10;8.55;;;;;;;7.56;100.00;99522.47;4309407;33;20461;-74
2022/11/03 05:56:44;;;;;;;18.60;9.80;;;;;;;7.49;100.00;99525.22;4309987;33;20080;-74
2022/11/03 05:59:14;;;;;;;25.65;10.20;;;;;;;7.44;100.00;99523.19;4309201;33;20041;-74
2022/11/03 06:01:40;;;;;;;25.10;10.60;;;;;;;7.41;100.00;99517.44;4309303;33;20375;-74
2022/11/03 06:04:35;;;;;;;23.55;9.75;;;;;;;7.26;100.00;99515.88;4308269;33;20105;-74
2022/11/03 06:07:10;;;;;;;26.12;11.25;;;;;;;6.91;100.00;99475.31;4311629;33;20130;-77
2022/11/03 06:09:37;;;;;;;31.08;12.35;;;;;;;6.69;100.00;99472.16;4318266;33;20037;-76
2022/11/03 06:12:06;;;;;;;24.05;11.60;;;;;;;6.87;100.00;99511.56;4322893;33;20114;-76
2022/11/03 06:14:35;;;;;;;29.83;11.02;;;;;;;6.48;100.00;99476.75;4330829;33;20043;-76
2022/11/03 06:17:04;;;;;;;21.85;11.38;;;;;;;6.52;100.00;99483.31;4334338;32;20119;-76
2022/11/03 06:19:38;;;;;;;25.70;10.48;;;;;;;6.73;100.00;99522.34;4323610;33;20082;-76
2022/11/03 06:22:20;;;;;;;19.35;9.48;;;;;;;6.56;100.00;99510.47;4324263;33;20078;-76
2022/11/03 06:25:10;;;;;;;22.27;10.32;;;;;;;6.54;100.00;99524.06;4325836;33;20040;-77
2022/11/03 06:27:37;;;;;;;29.05;11.80;;;;;;;6.73;100.00;99521.50;4324734;33;20216;-77
2022/11/03 06:30:22;;;;;;;21.80;11.60;;;;;;;6.95;100.00;99521.22;4323102;33;20102;-76
2022/11/03 06:32:49;;;;;;;22.13;10.10;;;;;;;6.98;100.00;99518.94;4320562;33;20100;-76
2022/11/03 06:35:16;;;;;;;26.70;11.75;;;;;;;6.56;100.00;99443.59;4322996;33;20063;-76
2022/11/03 06:37:43;;;;;;;18.52;10.05;;;;;;;7.02;100.00;99527.34;4326167;33;20400;-77
2022/11/03 06:40:10;;;;;;;33.45;12.20;;;;;;;6.99;100.00;99519.75;4324399;33;20133;-76
2022/11/03 06:42:40;;;;;;;24.77;11.45;;;;;;;7.02;100.00;99524.66;4323731;33;20033;-75
2022/11/03 06:45:17;;;;;;;24.12;9.95;;;;;;;7.09;100.00;99531.62;4320456;33;20077;-76
2022/11/03 06:47:43;;;;;;;23.77;10.85;;;;;;;7.15;100.00;99519.25;4321258;33;20423;-78
2022/11/03 06:50:24;;;;;;;22.50;10.63;;;;;;;7.16;100.00;99515.53;4320073;33;20141;-79
2022/11/03 06:52:53;;;;;;;29.52;10.60;;;;;;;6.99;100.00;99482.25;4305276;33;20041;-81
2022/11/03 06:55:31;;;;;;;29.92;12.90;;;;;;;7.24;100.00;99520.66;4332665;33;20107;-78
2022/11/03 06:58:01;;;;;;;20.30;10.52;;;;;;;6.82;100.00;99464.03;4333486;33;20047;-79
2022/11/03 07:00:30;;;;;;;33.72;12.75;;;;;;;6.98;100.00;99491.34;4348268;32;20086;-78
2022/11/03 07:03:18;;;;;;;23.77;12.40;;;;;;;7.26;100.00;99521.25;4351311;32;20047;-79
2022/11/03 07:05:45;;;;;;;29.63;12.45;;;;;;;7.55;100.00;99535.06;4349968;33;20062;-76
2022/11/03 07:08:42;;;;;;;30.73;14.43;;;;;;;7.25;100.00;99495.47;4350741;32;20037;-77
2022/11/03 07:11:14;;;;;;;33.33;14.57;;;;;;;7.74;100.00;99533.28;4344879;33;20061;-78
2022/11/03 07:13:41;;;;;;;33.55;14.45;;;;;;;7.75;100.00;99536.75;4347364;32;20066;-77
2022/11/03 07:16:27;;;;;;;43.17;13.93;;;;;;;7.69;100.00;99498.28;4353928;32;20073;-77
2022/11/03 07:18:55;;;;;;;23.98;11.80;;;;;;;8.05;100.00;99533.41;4354371;32;20069;-75
2022/11/03 07:21:34;;;;;;;29.60;13.25;;;;;;;7.90;100.00;99490.87;4352881;32;20044;-78
2022/11/03 07:24:11;;;;;;;34.20;11.07;;;;;;;8.20;100.00;99536.59;4339858;33;20501;-78
2022/11/03 07:26:37;;;;;;;24.95;10.48;;;;;;;8.23;100.00;99532.62;4344496;32;20386;-78
2022/11/03 07:29:06;;;;;;;27.50;11.52;;;;;;;8.26;100.00;99522.25;4338420;33;20070;-78
2022/11/03 07:31:32;;;;;;;22.52;9.43;;;;;;;8.40;100.00;99535.56;4340869;33;20078;-78
2022/11/03 07:33:59;;;;;;;26.77;8.77;;;;;;;8.07;100.00;99493.78;4339648;33;20347;-77
2022/11/03 07:36:30;;;;;;;30.92;9.48;;;;;;;8.18;100.00;99485.84;4336220;33;20509;-77
2022/11/03 07:39:00;;;;;;;25.05;10.63;;;;;;;8.63;100.00;99525.00;4324747;33;20472;-75
2022/11/03 07:41:31;;;;;;;22.70;11.55;;;;;;;8.77;100.00;99531.00;4326053;33;20041;-77
2022/11/03 07:43:59;;;;;;;32.90;9.40;;;;;;;8.76;100.00;99523.19;4325438;33;20074;-77
2022/11/03 07:46:26;;;;;;;22.33;11.40;;;;;;;8.73;100.00;99525.28;4325598;33;20028;-78
2022/11/03 07:48:57;;;;;;;24.23;10.10;;;;;;;8.85;100.00;99513.78;4316054;33;20063;-76
2022/11/03 07:51:28;;;;;;;25.25;10.05;;;;;;;8.60;100.00;99493.22;4312605;33;20059;-78
2022/11/03 07:54:01;;;;;;;30.20;10.30;;;;;;;8.86;100.00;99518.91;4318129;33;20040;-77
2022/11/03 07:56:37;;;;;;;29.33;10.70;;;;;;;8.94;100.00;99520.47;4334072;33;20147;-78
2022/11/03 07:59:14;;;;;;;24.12;9.88;;;;;;;9.18;100.00;99520.56;4313345;33;20044;-78
2022/11/03 08:01:44;;;;;;;29.50;9.25;;;;;;;9.05;100.00;99521.56;4309650;33;20212;-77
2022/11/03 08:04:30;;;;;;;18.50;8.55;;;;;;;9.26;100.00;99528.31;4310022;33;20096;-77
2022/11/03 08:06:56;;;;;;;34.35;8.82;;;;;;;9.37;100.00;99519.47;4313808;33;20036;-77
2022/11/03 08:09:23;;;;;;;22.42;8.73;;;;;;;9.21;100.00;99485.19;4339849;32;20081;-77
2022/11/03 08:11:50;;;;;;;27.15;9.65;;;;;;;9.48;100.00;99508.94;4337890;32;20053;-76
2022/11/03 08:14:16;;;;;;;19.50;8.75;;;;;;;9.54;100.00;99508.88;4337799;33;20040;-78
2022/11/03 08:16:43;;;;;;;33.85;9.82;;;;;;;9.61;100.00;99503.38;4342613;32;20059;-76
2022/11/03 08:19:09;;;;;;;19.83;8.90;;;;;;;9.67;100.00;99504.31;4344417;32;20057;-77
2022/11/03 08:21:36;;;;;;;21.30;9.02;;;;;;;9.64;100.00;99502.94;4345613;32;20059;-78
2022/11/03 08:24:04;;;;;;;24.65;9.07;;;;;;;9.73;100.00;99498.84;4345883;32;20394;-77
2022/11/03 08:26:30;;;;;;;18.70;7.60;;;;;;;9.66;100.00;99457.78;4338904;32;20097;-79
2022/11/03 08:28:56;;;;;;;21.33;7.32;;;;;;;9.78;100.00;99501.66;4333797;32;20648;-75
2022/11/03 08:31:23;;;;;;;20.23;7.40;;;;;;;9.59;100.00;99457.09;4326023;33;20048;-78
2022/11/03 08:33:49;;;;;;;25.73;7.20;;;;;;;9.86;100.00;99491.59;4325644;33;20469;-78
2022/11/03 08:36:16;;;;;;;22.25;6.60;;;;;;;9.70;100.00;99474.28;4325431;33;20136;-78
2022/11/03 08:38:42;;;;;;;18.75;8.38;;;;;;;9.86;100.00;99488.91;4326814;33;20400;-79
2022/11/03 08:41:09;;;;;;;18.00;7.40;;;;;;;9.86;100.00;99491.59;4323696;33;20077;-77
2022/11/03 08:43:35;;;;;;;19.60;7.82;;;;;;;10.10;100.00;99485.16;4326775;33;20048;-77
2022/11/03 08:46:02;;;;;;;24.35;8.35;;;;;;;9.96;100.00;99424.59;4326345;33;20049;-78
2022/11/03 08:48:28;;;;;;;21.42;8.43;;;;;;;10.38;100.00;99485.50;4325879;33;20375;-80
2022/11/03 08:50:55;;;;;;;22.08;9.40;;;;;;;10.34;100.00;99450.19;4324629;33;20074;-78
2022/11/03 08:53:24;;;;;;;31.12;9.20;;;;;;;10.33;100.00;99478.13;4318576;33;20112;-78
2022/11/03 08:55:54;;;;;;;25.37;9.30;;;;;;;10.42;100.00;99465.13;4312091;33;20476;-79
2022/11/03 08:58:21;;;;;;;25.40;8.55;;;;;;;10.48;100.00;99473.06;4344482;32;20397;-78
2022/11/03 09:00:48;;;;;;;35.58;7.87;;;;;;;10.17;100.00;99429.31;4382240;32;20046;-78
2022/11/03 09:03:21;;;;;;;24.25;6.75;;;;;;;10.35;100.00;99433.78;4383369;32;20643;-78
2022/11/03 09:05:47;;;;;;;27.42;7.28;;;;;;;10.49;100.00;99434.31;4384181;32;20070;-78
2022/11/03 09:08:19;;;;;;;;;;;;;;;10.53;100.00;99423.91;4371322;32;20456;-77
2022/11/03 09:10:46;;;;;;;19.45;7.40;;;;;;;10.96;100.00;99475.59;4368411;32;19983;-78
2022/11/03 09:13:12;;;;;;;26.85;7.30;;;;;;;11.02;100.00;99469.25;4367085;32;20408;-80
2022/11/03 09:15:38;;;;;;;27.10;6.93;;;;;;;10.84;100.00;99457.59;4367423;32;20032;-79
2022/11/03 09:18:05;;;;;;;21.35;6.45;;;;;;;10.35;100.00;99389.88;4368324;32;20186;-78
2022/11/03 09:20:31;;;;;;;23.50;7.93;;;;;;;10.63;100.00;99428.66;4368261;32;20043;-78
2022/11/03 09:22:57;;;;;;;18.12;6.22;;;;;;;10.70;100.00;99430.13;4368954;32;20057;-78
2022/11/03 09:25:24;;;;;;;13.20;5.68;;;;;;;10.88;100.00;99421.06;4335733;33;20044;-77
2022/11/03 09:27:50;;;;;;;24.10;6.80;;;;;;;11.53;100.00;99464.72;4338213;33;20108;-78
2022/11/03 09:30:17;;;;;;;9.23;5.30;;;;;;;11.62;100.00;99463.25;4337200;33;21844;-76
2022/11/03 09:32:45;;;;;;;16.02;5.43;;;;;;;10.97;100.00;99413.38;4296620;33;20212;-76
2022/11/03 09:35:13;;;;;;;18.20;4.45;;;;;;;11.01;100.00;99456.81;4293420;33;20398;-77
2022/11/03 09:37:40;;;;;;;16.37;5.40;;;;;;;11.53;100.00;99448.53;4292538;33;20025;-76
2022/11/03 09:40:09;;;;;;;11.50;4.80;;;;;;;11.58;100.00;99443.25;4308343;33;20089;-76
2022/11/03 09:42:36;;;;;;;22.95;6.40;;;;;;;11.57;100.00;99449.69;4308650;33;20024;-75
2022/11/03 09:45:04;;;;;;;18.75;4.07;;;;;;;11.62;100.00;99444.37;4306857;33;20040;-76
2022/11/03 09:47:36;;;;;;;17.23;5.78;;;;;;;11.71;100.00;99438.53;4304990;33;20028;-76
2022/11/03 09:50:05;;;;;;;9.18;4.78;;;;;;;11.57;100.00;99395.75;4306884;33;20475;-76
2022/11/03 09:52:32;;;;;;;10.23;4.47;;;;;;;11.85;100.00;99429.03;4307057;33;20175;-79
2022/11/03 09:54:58;;;;;;;11.23;3.87;;;;;;;11.04;100.00;99397.06;4306919;33;20105;-82
2022/11/03 09:57:28;;;;;;;13.73;4.20;;;;;;;11.22;100.00;99421.09;4319204;33;20143;-76
2022/11/03 09:59:55;;;;;;;10.15;4.57;;;;;;;11.35;100.00;99392.19;4319310;33;20052;-76
2022/11/03 10:02:29;;;;;;;12.43;3.85;;;;;;;11.80;100.00;99415.50;4322801;33;20036;-77
2022/11/03 10:04:59;;;;;;;10.93;3.50;;;;;;;11.62;100.00;99385.03;4321685;33;20167;-77
2022/11/03 10:07:27;;;;;;;9.98;3.35;;;;;;;11.84;100.00;99411.25;4320658;33;20088;-77
2022/11/03 10:10:00;;;;;;;19.40;4.12;;;;;;;12.27;100.00;99415.06;4322505;33;20076;-78
2022/11/03 10:12:31;;;;;;;9.48;4.22;;;;;;;12.38;100.00;99404.38;4307659;33;20032;-79
2022/11/03 10:14:58;;;;;;;11.38;4.00;;;;;;;12.43;100.00;99399.03;4321198;33;20040;-78
2022/11/03 10:17:29;;;;;;;11.57;3.47;;;;;;;12.27;100.00;99393.47;4321202;33;20071;-76
2022/11/03 10:19:57;;;;;;;9.35;3.47;;;;;;;12.13;100.00;99398.44;4312864;33;20033;-77
2022/11/03 10:22:23;;;;;;;10.27;2.85;;;;;;;12.32;100.00;99400.81;4313094;33;20047;-76
2022/11/03 10:25:24;;;;;;;14.55;3.92;;;;;;;11.97;100.00;99400.09;4320723;33;20105;-75
2022/11/03 10:27:51;;;;;;;17.70;4.00;;;;;;;12.33;100.00;99395.16;4367104;32;20027;-78
2022/11/03 10:30:17;;;;;;;11.12;3.83;;;;;;;11.90;100.00;99396.75;4366323;32;20427;-76
2022/11/03 10:32:44;;;;;;;9.45;3.72;;;;;;;11.94;100.00;99367.41;4367367;32;20047;-77
2022/11/03 10:35:31;;;;;;;6.25;3.80;;;;;;;12.04;100.00;99354.03;4373139;32;20353;-78
2022/11/03 10:38:23;;;;;;;17.15;3.40;;;;;;;12.55;100.00;99394.31;4373564;32;20050;-77
2022/11/03 10:40:49;;;;;;;11.00;5.03;;;;;;;12.61;100.00;99387.09;4371388;32;20389;-77
2022/11/03 10:43:16;;;;;;;9.23;3.33;;;;;;;12.46;100.00;99385.03;4365068;32;20055;-77
2022/11/03 10:45:42;;;;;;;13.82;2.80;;;;;;;12.43;100.00;99374.72;4370456;32;20068;-76
2022/11/03 10:48:10;;;;;;;17.45;3.35;;;;;;;12.39;100.00;99373.63;4364474;32;20051;-77
2022/11/03 10:50:39;;;;;;;10.27;3.53;;;;;;;13.02;100.00;99372.06;4360776;32;20649;-77
2022/11/03 10:53:16;;;;;;;7.62;2.70;;;;;;;13.14;100.00;99346.75;4353572;32;20103;-77
2022/11/03 10:55:44;;;;;;;5.35;2.70;;;;;;;13.74;100.00;99369.91;4340466;32;20057;-78
2022/11/03 10:58:11;;;;;;;9.20;2.70;;;;;;;14.02;100.00;99367.87;4338315;33;20078;-78
2022/11/03 11:00:40;;;;;;;4.82;2.92;;;;;;;13.38;100.00;99277.72;4337032;33;20048;-79
2022/11/03 11:03:07;;;;;;;7.75;2.90;;;;;;;14.12;100.00;99357.09;4323640;33;20115;-78
2022/11/03 11:05:33;;;;;;;14.25;2.80;;;;;;;13.77;100.00;99355.84;4325743;33;20089;-78
2022/11/03 11:08:00;;;;;;;12.37;2.60;;;;;;;14.10;100.00;99329.44;4326292;33;20396;-78
2022/11/03 11:10:30;;;;;;;7.75;2.42;;;;;;;14.48;100.00;99343.66;4326282;33;20148;-77
2022/11/03 11:13:15;;;;;;;12.52;3.45;;;;;;;14.41;100.00;99331.44;4321738;33;20433;-77
2022/11/03 11:15:47;;;;;;;5.85;2.40;;;;;;;14.34;100.00;99305.44;4309182;33;20080;-78
2022/11/03 11:18:37;;;;;;;13.10;1.92;;;;;;;14.65;100.00;99315.53;4313612;33;20044;-78
2022/11/03 11:21:18;;;;;;;4.00;1.70;;;;;;;14.71;100.00;99322.59;4339842;33;20383;-77
2022/11/03 11:23:46;;;;;;;4.63;2.13;;;;;;;15.03;91.56;99299.78;4342498;33;20051;-78
2022/11/03 11:26:25;;;;;;;9.95;2.12;;;;;;;13.90;93.43;99327.50;4347959;32;20043;-77
2022/11/03 11:29:10;;;;;;;4.40;1.73;;;;;;;13.92;98.85;99328.03;4356357;32;20077;-77
2022/11/03 11:31:44;;;;;;;7.15;1.85;;;;;;;14.21;100.00;99327.59;4356355;32;20074;-78
2022/11/03 11:34:17;;;;;;;4.53;2.28;;;;;;;14.04;100.00;99317.00;4356243;32;20053;-77
2022/11/03 11:37:06;;;;;;;10.80;1.77;;;;;;;13.79;94.17;99272.50;4338752;33;20048;-78
2022/11/03 11:39:34;;;;;;;5.85;1.80;;;;;;;14.01;95.39;99301.28;4338103;33;20071;-77
2022/11/03 11:42:18;;;;;;;3.30;2.30;;;;;;;14.15;90.23;99275.34;4340123;33;20358;-78
2022/11/03 11:44:55;;;;;;;7.32;2.70;;;;;;;14.67;88.05;99291.69;4339168;33;20036;-78
2022/11/03 11:47:33;;;;;;;9.60;2.55;;;;;;;14.11;89.92;99306.72;4338121;33;20072;-78
2022/11/03 11:50:09;;;;;;;7.57;2.60;;;;;;;14.05;100.00;99296.94;4339894;33;20032;-79
2022/11/03 11:52:48;;;;;;;9.00;3.08;;;;;;;15.20;94.72;99300.31;4338416;33;20130;-78
2022/11/03 11:55:31;;;;;;;5.55;2.33;;;;;;;15.33;100.00;99284.56;4339677;33;20047;-77
2022/11/03 11:58:00;;;;;;;7.07;2.60;;;;;;;14.64;97.68;99241.53;4339686;33;20052;-78